Time,TemperatureF,DewpointF,PressureIn,WindDirection,WindDirectionDegrees,WindSpeedMPH,WindSpeedGustMPH,Humidity,HourlyPrecipIn,Conditions,Clouds,dailyrainin,SoftwareType,DateUTC
2013-03-20 00:07:00,43.1,43.0,29.59,SE,140,0.0,1.0,98,0.13,,,0.02,weatherlink.com 1.10,2013-03-20 07:07:00,
2013-03-20 00:22:00,42.9,42.0,29.57,SE,134,0.0,1.0,98,0.13,,,0.05,weatherlink.com 1.10,2013-03-20 07:22:00,
2013-03-20 00:37:00,42.9,42.0,29.57,East,96,2.0,4.0,98,0.14,,,0.08,weatherlink.com 1.10,2013-03-20 07:37:00,
2013-03-20 00:52:00,42.9,42.0,29.55,WSW,250,0.0,1.0,98,0.14,,,0.11,weatherlink.com 1.10,2013-03-20 07:52:00,
2013-03-20 01:08:00,42.9,42.0,29.55,West,261,1.0,2.0,98,0.11,,,0.13,weatherlink.com 1.10,2013-03-20 08:08:00,
2013-03-20 01:23:00,43.0,43.0,29.54,SE,142,0.0,3.0,98,0.09,,,0.14,weatherlink.com 1.10,2013-03-20 08:23:00,
2013-03-20 01:38:00,42.9,42.0,29.53,SSW,198,0.0,1.0,98,0.07,,,0.15,weatherlink.com 1.10,2013-03-20 08:38:00,
2013-03-20 01:53:00,42.9,42.0,29.53,SSW,211,0.0,1.0,98,0.05,,,0.16,weatherlink.com 1.10,2013-03-20 08:53:00,
2013-03-20 02:08:00,43.0,43.0,29.52,SSW,209,0.0,0.0,98,0.06,,,0.19,weatherlink.com 1.10,2013-03-20 09:08:00,
2013-03-20 02:23:00,43.1,43.0,29.51,SW,236,0.0,1.0,98,0.08,,,0.22,weatherlink.com 1.10,2013-03-20 09:23:00,
2013-03-20 02:38:00,43.1,43.0,29.50,ESE,120,1.0,3.0,98,0.09,,,0.24,weatherlink.com 1.10,2013-03-20 09:38:00,
2013-03-20 02:53:00,43.2,43.0,29.49,SE,125,1.0,2.0,98,0.09,,,0.25,weatherlink.com 1.10,2013-03-20 09:53:00,
2013-03-20 03:08:00,43.3,43.0,29.48,SW,215,0.0,2.0,98,0.08,,,0.27,weatherlink.com 1.10,2013-03-20 10:08:00,
2013-03-20 03:23:00,43.4,43.0,29.46,SSW,207,0.0,5.0,98,0.06,,,0.28,weatherlink.com 1.10,2013-03-20 10:23:00,
2013-03-20 03:38:00,43.7,43.0,29.46,SSE,165,2.0,5.0,98,0.04,,,0.28,weatherlink.com 1.10,2013-03-20 10:38:00,
2013-03-20 03:53:00,44.1,44.0,29.45,SE,142,0.0,6.0,98,0.04,,,0.29,weatherlink.com 1.10,2013-03-20 10:53:00,
2013-03-20 04:08:00,44.3,44.0,29.45,SSE,155,0.0,5.0,98,0.04,,,0.31,weatherlink.com 1.10,2013-03-20 11:08:00,
2013-03-20 04:23:00,44.5,44.0,29.43,SE,133,3.0,6.0,98,0.06,,,0.34,weatherlink.com 1.10,2013-03-20 11:23:00,
2013-03-20 04:38:00,45.0,45.0,29.42,East,82,3.0,5.0,98,0.07,,,0.35,weatherlink.com 1.10,2013-03-20 11:38:00,
2013-03-20 04:53:00,45.5,45.0,29.41,SW,215,1.0,6.0,99,0.09,,,0.39,weatherlink.com 1.10,2013-03-20 11:53:00,
2013-03-20 05:08:00,46.4,46.0,29.40,SSE,152,0.0,6.0,99,0.14,,,0.45,weatherlink.com 1.10,2013-03-20 12:08:00,
2013-03-20 05:23:00,47.2,47.0,29.39,SSW,193,0.0,4.0,99,0.14,,,0.48,weatherlink.com 1.10,2013-03-20 12:23:00,
2013-03-20 05:38:00,48.0,48.0,29.39,SE,142,1.0,8.0,99,0.15,,,0.50,weatherlink.com 1.10,2013-03-20 12:38:00,
2013-03-20 05:53:00,48.5,48.0,29.38,SE,131,2.0,6.0,99,0.15,,,0.54,weatherlink.com 1.10,2013-03-20 12:53:00,
2013-03-20 06:08:00,49.0,49.0,29.36,SE,128,3.0,13.0,98,0.11,,,0.56,weatherlink.com 1.10,2013-03-20 13:08:00,
2013-03-20 06:23:00,49.3,49.0,29.36,SSW,197,3.0,10.0,98,0.08,,,0.56,weatherlink.com 1.10,2013-03-20 13:23:00,
2013-03-20 06:38:00,49.4,49.0,29.35,SSE,160,4.0,8.0,97,0.07,,,0.57,weatherlink.com 1.10,2013-03-20 13:38:00,
2013-03-20 07:09:00,49.6,49.0,29.35,SSW,194,0.0,12.0,97,0.09,,,0.65,weatherlink.com 1.10,2013-03-20 14:09:00,
2013-03-20 07:24:00,50.1,49.0,29.34,SSE,148,5.0,13.0,97,0.10,,,0.66,weatherlink.com 1.10,2013-03-20 14:24:00,
2013-03-20 07:39:00,50.4,50.0,29.34,SW,218,5.0,10.0,98,0.11,,,0.68,weatherlink.com 1.10,2013-03-20 14:39:00,
2013-03-20 07:54:00,50.6,50.0,29.36,SW,233,5.0,9.0,98,0.21,,,0.81,weatherlink.com 1.10,2013-03-20 14:54:00,
2013-03-20 08:09:00,50.6,50.0,29.36,SW,214,1.0,6.0,97,0.20,,,0.86,weatherlink.com 1.10,2013-03-20 15:09:00,
2013-03-20 08:24:00,50.6,50.0,29.35,SSE,153,1.0,7.0,97,0.23,,,0.89,weatherlink.com 1.10,2013-03-20 15:24:00,
2013-03-20 08:39:00,50.7,50.0,29.36,WSW,256,1.0,6.0,97,0.20,,,0.89,weatherlink.com 1.10,2013-03-20 15:39:00,
2013-03-20 08:54:00,50.4,49.0,29.37,SSW,210,9.0,16.0,95,0.11,,,0.92,weatherlink.com 1.10,2013-03-20 15:54:00,
2013-03-20 09:09:00,49.8,49.0,29.38,SW,218,3.0,11.0,95,0.05,,,0.92,weatherlink.com 1.10,2013-03-20 16:09:00,
2013-03-20 09:24:00,49.2,47.0,29.39,NW,316,1.0,12.0,93,0.03,,,0.92,weatherlink.com 1.10,2013-03-20 16:24:00,
2013-03-20 09:39:00,49.4,47.0,29.40,SSW,207,3.0,10.0,92,0.03,,,0.92,weatherlink.com 1.10,2013-03-20 16:39:00,
2013-03-20 09:54:00,49.5,47.0,29.41,WSW,253,5.0,11.0,91,0.00,,,0.92,weatherlink.com 1.10,2013-03-20 16:54:00,
2013-03-20 10:09:00,49.6,46.0,29.43,West,262,3.0,14.0,88,0.00,,,0.92,weatherlink.com 1.10,2013-03-20 17:09:00,
2013-03-20 10:24:00,49.6,47.0,29.44,SW,232,3.0,20.0,89,0.00,,,0.92,weatherlink.com 1.10,2013-03-20 17:24:00,
2013-03-20 10:39:00,50.4,46.0,29.45,SW,235,5.0,14.0,86,0.00,,,0.92,weatherlink.com 1.10,2013-03-20 17:39:00,
2013-03-20 10:54:00,51.0,46.0,29.47,ESE,103,5.0,10.0,83,0.00,,,0.92,weatherlink.com 1.10,2013-03-20 17:54:00,
2013-03-20 11:09:00,51.0,46.0,29.49,SW,215,2.0,9.0,82,0.00,,,0.92,weatherlink.com 1.10,2013-03-20 18:09:00,
2013-03-20 11:24:00,50.8,46.0,29.50,WSW,246,6.0,6.0,82,0.00,,,0.92,weatherlink.com 1.10,2013-03-20 18:24:00,
2013-03-20 11:39:00,50.6,44.0,29.51,WSW,249,16.0,18.0,79,0.00,,,0.92,weatherlink.com 1.10,2013-03-20 18:39:00,
2013-03-20 11:54:00,50.7,45.0,29.52,WNW,291,4.0,20.0,81,0.00,,,0.92,weatherlink.com 1.10,2013-03-20 18:54:00,
2013-03-20 12:09:00,47.6,45.0,29.54,SSW,211,2.0,16.0,89,0.03,,,0.95,weatherlink.com 1.10,2013-03-20 19:09:00,
2013-03-20 12:24:00,47.7,46.0,29.55,WSW,250,2.0,10.0,93,0.03,,,0.95,weatherlink.com 1.10,2013-03-20 19:24:00,
2013-03-20 12:39:00,49.4,46.0,29.55,SW,228,0.0,18.0,87,0.03,,,0.95,weatherlink.com 1.10,2013-03-20 19:39:00,
2013-03-20 12:54:00,47.7,45.0,29.57,South,191,3.0,16.0,89,0.03,,,0.95,weatherlink.com 1.10,2013-03-20 19:54:00,
2013-03-20 13:09:00,47.8,46.0,29.57,West,264,5.0,8.0,92,0.00,,,0.95,weatherlink.com 1.10,2013-03-20 20:09:00,
2013-03-20 13:24:00,49.0,45.0,29.58,SW,222,0.0,12.0,87,0.00,,,0.95,weatherlink.com 1.10,2013-03-20 20:24:00,
2013-03-20 13:39:00,49.8,46.0,29.59,SSW,197,0.0,9.0,85,0.00,,,0.95,weatherlink.com 1.10,2013-03-20 20:39:00,
2013-03-20 13:54:00,49.8,45.0,29.59,WSW,239,8.0,12.0,82,0.00,,,0.95,weatherlink.com 1.10,2013-03-20 20:54:00,
2013-03-20 14:09:00,50.3,45.0,29.59,SE,134,2.0,12.0,81,0.00,,,0.95,weatherlink.com 1.10,2013-03-20 21:09:00,
2013-03-20 14:24:00,50.3,44.0,29.59,SSW,208,4.0,20.0,80,0.00,,,0.95,weatherlink.com 1.10,2013-03-20 21:24:00,
2013-03-20 14:39:00,50.3,43.0,29.59,SSE,166,4.0,14.0,77,0.00,,,0.95,weatherlink.com 1.10,2013-03-20 21:39:00,
2013-03-20 14:54:00,50.2,44.0,29.59,SSW,212,3.0,21.0,78,0.00,,,0.95,weatherlink.com 1.10,2013-03-20 21:54:00,
2013-03-20 15:09:00,50.1,43.0,29.60,SE,132,0.0,20.0,76,0.00,,,0.95,weatherlink.com 1.10,2013-03-20 22:09:00,
2013-03-20 15:24:00,49.9,43.0,29.61,WSW,246,6.0,17.0,76,0.00,,,0.95,weatherlink.com 1.10,2013-03-20 22:24:00,
2013-03-20 15:39:00,49.7,42.0,29.64,WSW,240,13.0,17.0,76,0.00,,,0.95,weatherlink.com 1.10,2013-03-20 22:39:00,
2013-03-20 15:54:00,49.4,42.0,29.65,SSE,155,8.0,18.0,75,0.00,,,0.95,weatherlink.com 1.10,2013-03-20 22:54:00,
2013-03-20 16:09:00,50.5,42.0,29.65,SW,232,2.0,15.0,73,0.00,,,0.95,weatherlink.com 1.10,2013-03-20 23:09:00,
2013-03-20 16:24:00,51.2,42.0,29.66,SSW,211,0.0,8.0,70,0.00,,,0.95,weatherlink.com 1.10,2013-03-20 23:24:00,
2013-03-20 16:39:00,51.0,42.0,29.67,WSW,253,1.0,21.0,71,0.00,,,0.95,weatherlink.com 1.10,2013-03-20 23:39:00,
2013-03-20 16:54:00,50.8,41.0,29.68,West,273,8.0,11.0,69,0.00,,,0.95,weatherlink.com 1.10,2013-03-20 23:54:00,
2013-03-20 17:10:00,50.5,40.0,29.69,WSW,238,3.0,15.0,68,0.00,,,0.95,weatherlink.com 1.10,2013-03-21 00:10:00,
2013-03-20 17:25:00,50.5,40.0,29.69,SW,219,2.0,11.0,67,0.00,,,0.95,weatherlink.com 1.10,2013-03-21 00:25:00,
2013-03-20 17:40:00,49.5,40.0,29.70,WSW,253,9.0,12.0,70,0.00,,,0.95,weatherlink.com 1.10,2013-03-21 00:40:00,
2013-03-20 17:55:00,48.3,40.0,29.71,SW,221,10.0,15.0,72,0.00,,,0.95,weatherlink.com 1.10,2013-03-21 00:55:00,
2013-03-20 18:10:00,47.2,39.0,29.72,SSW,204,4.0,20.0,72,0.00,,,0.95,weatherlink.com 1.10,2013-03-21 01:10:00,
2013-03-20 18:25:00,46.2,38.0,29.73,WSW,243,2.0,18.0,74,0.00,,,0.95,weatherlink.com 1.10,2013-03-21 01:25:00,
2013-03-20 18:40:00,45.5,38.0,29.75,SSW,193,4.0,14.0,76,0.00,,,0.95,weatherlink.com 1.10,2013-03-21 01:40:00,
2013-03-20 18:55:00,45.3,37.0,29.77,WSW,238,3.0,21.0,74,0.00,,,0.95,weatherlink.com 1.10,2013-03-21 01:55:00,
2013-03-20 19:10:00,45.0,35.0,29.77,SE,146,3.0,14.0,69,0.00,,,0.95,weatherlink.com 1.10,2013-03-21 02:10:00,
2013-03-20 19:25:00,44.4,35.0,29.78,SSW,203,1.0,12.0,70,0.00,,,0.95,weatherlink.com 1.10,2013-03-21 02:25:00,
2013-03-20 19:40:00,43.1,35.0,29.79,SSW,200,0.0,8.0,74,0.00,,,0.95,weatherlink.com 1.10,2013-03-21 02:40:00,
2013-03-20 19:55:00,42.4,35.0,29.82,South,175,2.0,11.0,76,0.00,,,0.95,weatherlink.com 1.10,2013-03-21 02:55:00,
2013-03-20 20:10:00,41.3,35.0,29.83,West,259,2.0,8.0,79,0.00,,,0.95,weatherlink.com 1.10,2013-03-21 03:10:00,
2013-03-20 20:25:00,40.9,35.0,29.83,West,266,3.0,8.0,80,0.00,,,0.95,weatherlink.com 1.10,2013-03-21 03:25:00,
2013-03-20 20:40:00,40.6,35.0,29.85,SSE,159,0.0,13.0,81,0.00,,,0.95,weatherlink.com 1.10,2013-03-21 03:40:00,
2013-03-20 20:55:00,40.5,35.0,29.87,WSW,245,6.0,8.0,81,0.00,,,0.95,weatherlink.com 1.10,2013-03-21 03:55:00,
2013-03-20 21:10:00,40.2,35.0,29.89,WSW,245,3.0,8.0,83,0.00,,,0.95,weatherlink.com 1.10,2013-03-21 04:10:00,
2013-03-20 21:25:00,39.9,35.0,29.90,SSE,160,2.0,14.0,83,0.00,,,0.95,weatherlink.com 1.10,2013-03-21 04:25:00,
2013-03-20 21:40:00,39.8,35.0,29.91,WSW,246,1.0,12.0,82,0.00,,,0.95,weatherlink.com 1.10,2013-03-21 04:40:00,
2013-03-20 21:55:00,39.5,34.0,29.93,SE,145,0.0,3.0,81,0.00,,,0.95,weatherlink.com 1.10,2013-03-21 04:55:00,
2013-03-20 22:11:00,39.1,33.0,29.94,South,181,0.0,1.0,80,0.00,,,0.95,weatherlink.com 1.10,2013-03-21 05:11:00,
2013-03-20 22:26:00,39.4,33.0,29.95,SW,221,0.0,5.0,79,0.00,,,0.95,weatherlink.com 1.10,2013-03-21 05:26:00,
2013-03-20 22:41:00,39.4,34.0,29.96,NE,50,3.0,6.0,81,0.00,,,0.95,weatherlink.com 1.10,2013-03-21 05:41:00,
2013-03-20 22:56:00,39.1,34.0,29.96,North,5,0.0,4.0,83,0.00,,,0.95,weatherlink.com 1.10,2013-03-21 05:56:00,